Date,TemperatureHighF,TemperatureAvgF,TemperatureLowF,DewpointHighF,DewpointAvgF,DewpointLowF,HumidityHigh,HumidityAvg,HumidityLow,PressureMaxIn,PressureMinIn,WindSpeedMaxMPH,WindSpeedAvgMPH,GustSpeedMaxMPH,PrecipitationSumIn
2013-4-8,37.0,37.0,37.0,34.0,34.0,34.0,89,89,89,29.99,29.99,0,0,0,0.00
2013-4-9,39.0,36.4,34.0,37.0,33.5,31.0,91,89,82,30.07,29.98,2,1,13,0.77
2013-4-10,37.0,33.6,29.0,34.0,30.1,26.0,89,87,81,30.09,29.97,2,0,11,0.16
2013-4-11,34.0,32.1,30.0,30.0,28.2,24.0,88,84,70,29.86,29.64,4,2,13,0.02
2013-4-12,33.0,30.2,29.0,29.0,27.0,26.0,89,89,84,29.73,29.58,2,0,23,0.01
2013-4-13,38.0,33.2,28.0,29.0,26.2,23.0,87,75,62,29.93,29.75,4,2,12,0.02
2013-4-14,34.0,31.4,24.0,31.0,27.4,20.0,89,85,77,30.00,29.68,1,0,9,0.02
2013-4-15,52.0,43.5,35.0,43.0,34.1,28.0,91,71,49,29.87,29.67,6,2,18,0.54
2013-4-16,47.0,40.7,34.0,33.0,30.1,27.0,77,66,55,30.25,29.98,3,2,24,0.44
2013-4-17,40.0,36.3,32.0,34.0,30.4,27.0,85,79,72,30.34,29.94,2,0,12,0.04
2013-4-18,40.0,38.1,36.0,38.0,35.5,33.0,91,90,89,29.73,29.30,3,0,17,0.16
2013-4-19,38.0,33.0,28.0,30.0,25.4,19.0,89,74,61,29.85,29.24,7,3,17,0.06
2013-4-20,42.0,34.1,22.0,24.0,18.0,15.0,78,53,40,30.32,30.00,4,2,21,0.00
2013-4-21,41.0,36.4,31.0,34.0,29.9,23.0,85,77,71,30.44,30.18,5,1,14,0.08
2013-4-22,48.0,45.4,42.0,45.0,41.5,38.0,89,86,79,30.17,30.01,4,1,7,0.14
2013-4-23,46.0,38.8,35.0,43.0,31.7,27.0,90,76,66,30.01,29.87,5,3,15,0.09
2013-4-24,50.0,37.1,24.0,29.0,25.2,20.0,87,65,44,30.02,29.95,4,2,13,0.00
2013-4-25,51.0,43.1,32.0,34.0,31.1,27.0,86,64,45,30.20,29.98,4,2,15,1.42
2013-4-26,41.0,39.3,38.0,32.0,31.0,29.0,78,72,64,30.22,30.17,6,2,10,1.38
2013-4-29,77.0,64.8,52.0,57.0,52.3,46.0,83,65,49,29.82,29.72,6,2,13,1.71
2013-4-30,65.0,61.2,59.0,57.0,55.1,54.0,84,81,75,29.66,29.63,4,4,8,1.71
2013-5-2,40.0,36.4,34.0,34.0,31.0,29.0,84,81,77,30.33,30.29,5,3,12,0.04
2013-5-3,43.0,37.5,33.0,41.0,34.5,30.0,91,89,87,30.19,30.06,2,0,6,0.41
2013-5-4,74.0,60.9,43.0,55.0,47.7,40.0,91,65,41,30.09,30.03,2,1,12,0.04
2013-5-5,75.0,61.9,47.0,49.0,44.8,40.0,76,55,37,30.11,30.03,2,0,6,0.00
2013-5-6,69.0,53.9,43.0,48.0,43.3,38.0,83,69,47,30.11,30.07,0,0,12,0.08
2013-5-8,77.0,70.9,68.0,46.0,45.4,45.0,43,40,33,29.97,29.96,0,0,0,0.00
2013-5-9,61.0,56.1,51.0,52.0,49.9,46.0,89,80,67,30.00,29.95,0,0,20,0.22
2013-5-10,41.0,40.4,40.0,38.0,37.4,37.0,90,89,88,30.02,29.99,0,0,11,0.49
2013-5-12,54.0,51.2,45.0,29.0,24.9,22.0,40,36,33,30.08,30.04,4,2,13,0.00
2013-5-13,66.0,52.5,28.0,35.0,29.7,20.0,73,44,28,30.16,29.93,3,1,114,0.02
2013-5-14,83.0,69.1,44.0,57.0,48.9,34.0,71,50,35,29.78,29.53,3,1,13,0.02
2013-5-15,77.0,69.7,60.0,49.0,45.2,43.0,61,43,31,29.87,29.69,4,2,13,0.00
2013-5-16,50.0,49.5,49.0,43.0,42.4,42.0,78,77,75,29.91,29.88,0,0,11,0.00
2013-5-19,86.0,75.5,59.0,68.0,62.9,55.0,88,67,51,29.94,29.72,4,2,15,0.00
2013-5-20,85.0,73.9,61.0,64.0,60.6,57.0,90,66,45,29.72,29.63,5,2,12,0.20
2013-5-21,77.0,70.2,62.0,65.0,59.4,56.0,84,69,56,29.72,29.60,3,1,9,0.14
2013-5-22,57.0,56.7,56.0,53.0,52.7,52.0,87,87,86,29.69,29.68,0,0,0,0.14
2013-6-1,78.0,70.2,58.0,65.0,57.8,48.0,85,66,50,29.76,29.62,3,1,9,0.02
2013-6-2,63.0,54.0,46.0,49.0,41.7,37.0,78,64,49,30.01,29.75,4,1,10,0.01
2013-6-3,72.0,62.8,42.0,49.0,45.5,38.0,86,56,39,30.07,30.00,2,0,9,0.36
2013-6-4,54.0,53.1,53.0,45.0,44.9,44.0,74,73,69,30.16,30.12,0,0,3,0.36
2013-6-18,74.0,65.6,51.0,54.0,48.9,41.0,71,56,44,30.12,30.07,1,0,6,0.00
2013-6-19,80.0,69.3,47.0,57.0,51.6,42.0,83,56,42,30.15,30.05,1,0,9,0.00
2013-6-20,85.0,71.1,60.0,64.0,58.2,52.0,76,65,48,30.12,30.09,1,0,12,0.00
2013-7-1,83.0,77.4,71.0,58.0,57.0,56.0,64,50,40,30.15,30.12,0,0,10,0.00
2013-7-2,78.0,71.4,57.0,55.0,51.5,48.0,73,51,38,30.17,30.09,0,0,18,0.00
2013-7-3,71.0,63.0,56.0,55.0,51.5,49.0,79,67,56,30.12,30.09,0,0,2,0.00
2013-7-27,60.0,54.8,50.0,49.0,46.0,43.0,79,72,65,29.96,29.86,1,0,8,0.04
2013-7-28,67.0,58.8,50.0,55.0,50.9,46.0,88,76,65,30.00,29.86,2,0,8,0.06
2013-7-29,76.0,65.6,53.0,59.0,54.5,47.0,83,68,54,30.15,30.06,0,0,11,0.00
2013-7-30,77.0,69.1,58.0,63.0,59.4,54.0,87,72,57,30.18,30.08,1,0,6,0.57
2013-7-31,79.0,69.9,63.0,66.0,62.5,58.0,86,78,61,30.08,29.95,0,0,11,0.14
2013-8-1,73.0,63.3,56.0,58.0,54.8,52.0,87,75,58,30.00,29.97,1,0,5,0.26
2013-8-15,77.0,56.2,50.0,58.0,24.3,-99.9,85,54,44,30.15,30.09,1,0,5,0.57
2013-8-16,80.0,65.6,53.0,59.0,46.5,-99.9,87,60,42,30.19,30.15,0,0,8,0.00
2013-8-17,83.0,65.5,54.0,60.0,51.6,-99.9,86,66,43,30.25,30.15,0,0,4,0.00
2013-8-18,84.0,70.2,55.0,61.0,56.6,50.0,85,64,44,30.21,30.08,2,0,6,0.00
2013-8-19,83.0,65.7,58.0,64.0,40.9,-99.9,86,65,50,30.08,29.99,2,0,9,0.57
2013-8-20,88.0,76.4,64.0,68.0,60.5,-99.9,85,65,52,30.05,29.96,2,1,6,0.57
2013-8-21,74.0,71.2,68.0,67.0,65.2,63.0,84,81,79,29.98,29.96,0,0,3,0.28
2013-8-25,91.0,86.0,83.0,73.0,71.3,70.0,66,62,55,30.06,30.04,0,0,0,0.55
2013-8-26,91.0,80.7,68.0,76.0,70.7,64.0,90,73,56,30.17,29.93,0,0,8,1.49
2013-8-27,92.0,82.0,75.0,75.0,72.8,71.0,87,75,58,29.90,29.82,0,0,0,0.41
2013-8-28,85.0,81.2,76.0,71.0,69.3,67.0,76,68,62,30.06,30.03,0,0,0,0.00
2013-8-29,88.0,78.9,67.0,71.0,67.5,63.0,89,70,53,30.10,29.96,0,0,12,0.00
2013-8-30,83.0,77.4,68.0,74.0,68.3,61.0,85,74,61,29.93,29.84,0,0,5,0.00
2013-8-31,80.0,68.2,59.0,67.0,58.6,-99.9,88,75,61,29.92,29.80,0,0,0,0.00
2013-9-1,81.0,71.9,66.0,70.0,63.4,60.0,88,76,58,29.88,29.76,0,0,0,0.00
2013-9-2,67.0,61.7,58.0,60.0,55.3,53.0,84,80,77,29.99,29.89,0,0,0,0.00
2013-9-21,58.0,53.4,48.0,47.0,45.0,43.0,86,73,64,29.94,29.87,2,0,11,0.00
2013-9-22,58.0,49.1,37.0,45.0,40.9,33.0,87,74,59,30.09,30.02,2,0,15,0.00
2013-9-23,66.0,52.7,41.0,53.0,45.5,37.0,87,78,64,30.12,30.09,1,0,6,0.13
2013-10-2,73.0,65.7,59.0,47.0,45.5,44.0,59,49,36,30.06,29.99,0,0,0,0.00
2013-10-3,69.0,61.0,53.0,59.0,52.7,45.0,89,74,67,29.95,29.87,0,0,0,0.12
2013-10-4,56.0,55.5,54.0,54.0,53.1,51.0,92,92,91,30.05,29.96,0,0,0,2.30
2013-10-5,62.0,59.8,56.0,60.0,57.8,54.0,94,93,93,29.95,29.73,0,0,0,0.42
2013-10-6,59.0,51.4,45.0,48.0,43.3,40.0,94,75,57,29.73,29.68,0,0,8,0.48
2013-10-7,63.0,51.9,44.0,49.0,43.4,40.0,88,74,50,30.02,29.78,0,0,0,0.01
2013-10-8,74.0,60.2,39.0,54.0,46.8,35.0,88,64,43,30.11,30.03,0,0,6,0.00
2013-10-9,73.0,62.7,49.0,54.0,49.8,43.0,82,64,50,30.17,30.12,1,0,10,0.00
2013-10-10,71.0,58.2,43.0,55.0,47.6,39.0,87,70,50,30.15,30.04,0,0,9,0.00
2013-10-11,60.0,53.8,49.0,54.0,49.3,45.0,87,85,82,30.05,30.04,0,0,0,0.00
2013-10-13,45.0,44.2,44.0,39.0,38.2,38.0,79,79,78,30.25,30.24,0,0,0,1.26
2013-10-20,44.0,38.7,32.0,40.0,35.5,29.0,90,89,84,29.82,29.66,0,0,0,0.08
2013-10-21,37.0,36.4,36.0,33.0,30.6,27.0,85,79,69,29.87,29.80,0,0,4,0.06
2013-10-22,47.0,38.3,29.0,33.0,27.5,24.0,82,66,54,29.95,29.89,0,0,0,0.00
2013-10-23,41.0,35.0,28.0,30.0,26.6,22.0,79,71,62,29.97,29.93,0,0,5,0.02
2013-10-24,43.0,37.2,33.0,30.0,27.0,24.0,75,67,57,30.22,30.03,0,0,4,0.02
2013-10-25,47.0,43.0,32.0,33.0,31.4,28.0,84,64,54,30.27,29.82,0,0,0,0.87
2013-10-26,48.0,44.4,42.0,37.0,32.6,30.0,71,63,55,30.03,29.71,1,0,16,0.87
2013-10-27,53.0,43.2,30.0,34.0,30.9,25.0,82,63,48,29.96,29.82,0,0,15,0.00
2013-10-28,42.0,36.1,32.0,28.0,24.8,22.0,75,63,52,30.41,30.23,0,0,1,0.00
2013-10-29,43.0,36.5,28.0,36.0,30.1,22.0,80,77,75,30.40,30.16,1,0,16,0.00
2013-10-30,52.0,46.9,41.0,49.0,43.3,37.0,91,88,86,30.09,29.80,1,0,20,0.00
2013-10-31,51.0,51.0,51.0,49.0,49.0,49.0,92,92,92,29.58,29.57,0,0,0,0.04
2013-11-1,45.0,42.8,41.0,42.0,39.9,38.0,92,89,84,29.71,29.39,1,0,9,0.04
2013-11-2,42.0,39.7,36.0,37.0,35.7,32.0,89,85,81,30.10,29.82,3,0,17,0.02